Time;durP1;ratioP1;P1;durP2;ratioP2;P2;SDS_P1;SDS_P2;PMS_P1;PMS_P2;Temp;Humidity;BMP_temperature;BMP_pressure;BME280_temperature;BME280_humidity;BME280_pressure;Samples;Min_cycle;Max_cycle;Signal;HPM_P1;HPM_P2
2022/07/07 00:02:01;;;;;;;21.00;19.63;;;15.60;99.90;;;;;;5041689;28;20470;-76
2022/07/07 00:04:27;;;;;;;21.15;19.65;;;15.60;99.90;;;;;;5044920;28;20538;-76
2022/07/07 00:06:54;;;;;;;21.35;20.05;;;15.70;99.90;;;;;;5033444;28;20032;-76
2022/07/07 00:09:21;;;;;;;22.13;20.70;;;15.80;99.90;;;;;;5054330;28;20067;-76
2022/07/07 00:11:48;;;;;;;21.58;19.98;;;15.80;99.90;;;;;;5071032;28;20094;-76
2022/07/07 00:14:15;;;;;;;21.58;20.15;;;15.80;99.90;;;;;;5077626;28;20503;-77
2022/07/07 00:16:41;;;;;;;24.48;21.95;;;15.70;99.90;;;;;;5041560;28;20265;-76
2022/07/07 00:19:08;;;;;;;24.45;22.60;;;15.60;99.90;;;;;;5052816;28;20040;-76
2022/07/07 00:21:35;;;;;;;27.10;24.98;;;15.50;99.90;;;;;;5052618;28;20048;-76
2022/07/07 00:24:02;;;;;;;26.80;24.65;;;15.40;99.90;;;;;;5053040;28;20265;-76
2022/07/07 00:26:31;;;;;;;26.73;24.60;;;15.30;99.90;;;;;;5052103;28;20093;-76
2022/07/07 00:28:58;;;;;;;26.63;24.27;;;15.20;99.90;;;;;;5048959;28;20041;-76
2022/07/07 00:31:25;;;;;;;25.92;23.67;;;15.10;99.90;;;;;;5034666;28;20102;-77
2022/07/07 00:33:52;;;;;;;26.17;23.88;;;15.10;99.90;;;;;;5055033;28;20044;-77
2022/07/07 00:36:19;;;;;;;27.85;25.70;;;15.10;99.90;;;;;;5071389;28;20036;-77
2022/07/07 00:38:46;;;;;;;28.08;25.75;;;15.00;99.90;;;;;;5056878;28;20058;-77
2022/07/07 00:41:14;;;;;;;26.42;24.23;;;14.80;99.90;;;;;;5038486;28;20147;-77
2022/07/07 00:43:42;;;;;;;26.30;24.17;;;14.70;99.90;;;;;;5046504;28;20055;-77
2022/07/07 00:46:10;;;;;;;26.83;24.40;;;14.60;99.90;;;;;;5045735;28;20143;-77
2022/07/07 00:48:38;;;;;;;25.85;23.90;;;14.60;99.90;;;;;;5046802;28;20070;-77
2022/07/07 00:51:08;;;;;;;25.67;23.52;;;14.50;99.90;;;;;;5051352;28;20123;-77
2022/07/07 00:53:37;;;;;;;26.38;24.08;;;14.40;99.90;;;;;;5044725;28;20094;-77
2022/07/07 00:56:04;;;;;;;26.10;24.05;;;14.40;99.90;;;;;;5053263;28;20041;-77
2022/07/07 00:58:33;;;;;;;28.92;26.17;;;14.40;99.90;;;;;;5053426;28;20075;-77
2022/07/07 01:01:02;;;;;;;27.38;25.02;;;14.40;99.90;;;;;;5053524;28;20048;-77
2022/07/07 01:03:29;;;;;;;28.00;25.50;;;14.20;99.90;;;;;;5048840;28;20062;-77
2022/07/07 01:05:58;;;;;;;28.60;25.85;;;14.20;99.90;;;;;;5047357;28;20468;-76
2022/07/07 01:08:26;;;;;;;30.88;28.17;;;14.20;99.90;;;;;;5052834;28;20105;-77
2022/07/07 01:10:53;;;;;;;28.48;25.45;;;14.20;99.90;;;;;;5037355;28;20043;-77
2022/07/07 01:13:20;;;;;;;28.27;25.33;;;14.10;99.90;;;;;;5046483;28;20162;-75
2022/07/07 01:15:47;;;;;;;31.60;24.98;;;14.10;99.90;;;;;;5051502;28;20125;-76
2022/07/07 01:18:14;;;;;;;27.92;25.00;;;14.00;99.90;;;;;;5057000;28;20044;-76
2022/07/07 01:20:47;;;;;;;31.88;28.48;;;14.00;99.90;;;;;;5062330;28;20105;-76
2022/07/07 01:23:14;;;;;;;30.73;27.38;;;14.00;99.90;;;;;;5063085;28;20044;-76
2022/07/07 01:25:41;;;;;;;31.85;28.67;;;13.90;99.90;;;;;;5051030;28;20401;-76
2022/07/07 01:28:08;;;;;;;32.42;29.15;;;13.90;99.90;;;;;;5067912;28;20211;-75
2022/07/07 01:30:36;;;;;;;29.75;26.55;;;13.90;99.90;;;;;;5067148;28;20036;-76
2022/07/07 01:33:03;;;;;;;31.67;28.25;;;13.80;99.90;;;;;;5039677;28;20044;-76
2022/07/07 01:35:29;;;;;;;32.53;28.00;;;13.80;99.90;;;;;;5070055;28;20036;-76
2022/07/07 01:37:56;;;;;;;32.20;28.75;;;13.80;99.90;;;;;;5049855;28;20044;-76
2022/07/07 01:40:23;;;;;;;30.10;26.17;;;13.80;99.90;;;;;;5037559;28;20204;-75
2022/07/07 01:42:50;;;;;;;30.50;26.48;;;13.80;99.90;;;;;;5036452;28;20397;-75
2022/07/07 01:45:17;;;;;;;31.33;28.05;;;13.80;99.90;;;;;;5052152;28;20058;-75
2022/07/07 01:47:44;;;;;;;34.97;29.08;;;13.80;99.90;;;;;;5033624;28;20122;-76
2022/07/07 01:50:11;;;;;;;31.08;27.73;;;13.80;99.90;;;;;;5051823;28;20469;-76
2022/07/07 01:52:38;;;;;;;32.83;29.35;;;13.80;99.90;;;;;;5052372;28;20093;-75
2022/07/07 01:55:05;;;;;;;37.22;31.30;;;13.80;99.90;;;;;;5052639;28;20164;-75
2022/07/07 01:57:32;;;;;;;39.67;35.08;;;13.90;99.90;;;;;;5050533;28;20044;-74
2022/07/07 01:59:58;;;;;;;37.65;31.08;;;13.90;99.90;;;;;;5054137;28;20044;-76
2022/07/07 02:02:25;;;;;;;34.22;30.52;;;13.90;99.90;;;;;;5048120;28;20068;-75
2022/07/07 02:04:52;;;;;;;40.90;30.65;;;13.90;99.90;;;;;;5068241;28;20045;-76
2022/07/07 02:07:19;;;;;;;43.55;33.13;;;13.80;99.90;;;;;;5052983;28;20546;-76
2022/07/07 02:09:46;;;;;;;40.45;32.55;;;13.90;99.90;;;;;;5037390;28;20536;-75
2022/07/07 02:12:13;;;;;;;42.17;31.30;;;13.90;99.90;;;;;;5043920;28;20052;-75
2022/07/07 02:14:39;;;;;;;44.33;33.33;;;13.70;99.90;;;;;;5050792;28;20028;-75
2022/07/07 02:17:06;;;;;;;47.58;36.08;;;13.70;99.90;;;;;;5051006;28;20476;-76
2022/07/07 02:19:33;;;;;;;46.78;36.50;;;13.70;99.90;;;;;;5038338;28;20454;-75
2022/07/07 02:22:00;;;;;;;59.50;39.45;;;13.60;99.90;;;;;;5049782;28;20045;-75
2022/07/07 02:24:27;;;;;;;51.08;39.03;;;13.60;99.90;;;;;;5038422;28;20060;-74
2022/07/07 02:26:53;;;;;;;54.63;39.70;;;13.60;99.90;;;;;;5056612;28;20258;-75
2022/07/07 02:29:20;;;;;;;54.17;39.80;;;13.60;99.90;;;;;;5029595;28;20048;-76
2022/07/07 02:31:47;;;;;;;52.58;39.38;;;13.50;99.90;;;;;;5039113;28;20803;-75
2022/07/07 02:34:14;;;;;;;54.15;38.97;;;13.40;99.90;;;;;;5040833;28;20079;-76
2022/07/07 02:36:41;;;;;;;56.45;40.13;;;13.40;99.90;;;;;;5046249;28;20036;-76
2022/07/07 02:39:07;;;;;;;54.42;39.72;;;13.40;99.90;;;;;;5048830;28;20072;-75
2022/07/07 02:41:34;;;;;;;57.03;42.08;;;13.40;99.90;;;;;;5048610;28;20573;-77
2022/07/07 02:44:01;;;;;;;68.68;45.25;;;13.50;99.90;;;;;;5049725;28;20110;-74
2022/07/07 02:46:28;;;;;;;70.03;47.95;;;13.50;99.90;;;;;;5065635;28;20184;-75
2022/07/07 02:48:56;;;;;;;59.63;43.22;;;13.40;99.90;;;;;;5048540;28;20047;-76
2022/07/07 02:51:22;;;;;;;68.50;45.70;;;13.40;99.90;;;;;;5049089;28;20086;-76
2022/07/07 02:53:49;;;;;;;75.45;48.25;;;13.40;99.90;;;;;;5045558;28;20532;-75
2022/07/07 02:56:16;;;;;;;63.28;46.65;;;13.50;99.90;;;;;;5035901;28;20066;-75
2022/07/07 02:58:43;;;;;;;62.47;42.63;;;13.50;99.90;;;;;;5051824;28;20082;-76
2022/07/07 03:01:10;;;;;;;62.38;44.38;;;13.50;99.90;;;;;;5072012;28;20504;-75
2022/07/07 03:03:37;;;;;;;63.65;43.97;;;13.40;99.90;;;;;;5052032;28;20505;-75
2022/07/07 03:06:04;;;;;;;70.82;46.30;;;13.50;99.90;;;;;;5054159;28;20059;-75
2022/07/07 03:08:31;;;;;;;63.58;44.50;;;13.50;99.90;;;;;;5073782;28;20048;-76
2022/07/07 03:10:59;;;;;;;64.38;45.00;;;13.40;99.90;;;;;;5066528;28;20083;-75
2022/07/07 03:13:26;;;;;;;61.92;44.42;;;13.50;99.90;;;;;;5055931;28;20516;-75
2022/07/07 03:15:54;;;;;;;63.15;44.95;;;13.50;99.90;;;;;;5070957;28;20062;-76
2022/07/07 03:18:21;;;;;;;65.82;44.63;;;13.50;99.90;;;;;;5077009;28;20420;-76
2022/07/07 03:20:48;;;;;;;72.65;47.63;;;13.50;99.90;;;;;;5050116;28;20356;-76
2022/07/07 03:23:15;;;;;;;61.75;43.45;;;13.50;99.90;;;;;;5073904;28;20478;-76
2022/07/07 03:25:41;;;;;;;66.53;45.00;;;13.60;99.90;;;;;;5039742;28;20465;-76
2022/07/07 03:28:08;;;;;;;72.47;46.30;;;13.60;99.90;;;;;;5041529;28;20101;-76
2022/07/07 03:30:35;;;;;;;65.63;44.50;;;13.60;99.90;;;;;;5049551;28;20070;-75
2022/07/07 03:33:02;;;;;;;66.10;44.03;;;13.60;99.90;;;;;;5049804;28;20047;-75
2022/07/07 03:35:28;;;;;;;58.42;44.53;;;13.70;99.90;;;;;;5056356;28;20040;-75
2022/07/07 03:37:55;;;;;;;65.65;44.88;;;13.70;99.90;;;;;;5051885;28;20105;-76
2022/07/07 03:40:22;;;;;;;61.55;42.20;;;13.80;99.90;;;;;;5041745;28;20404;-76
2022/07/07 03:42:49;;;;;;;67.85;42.40;;;13.80;99.90;;;;;;5064163;28;20051;-75
2022/07/07 03:45:16;;;;;;;60.33;42.78;;;13.80;99.90;;;;;;5072070;28;20048;-75
2022/07/07 03:47:43;;;;;;;58.72;40.67;;;13.90;99.90;;;;;;5063025;28;20556;-75
2022/07/07 03:50:09;;;;;;;63.90;41.70;;;13.90;99.90;;;;;;5071609;28;20687;-76
2022/07/07 03:52:36;;;;;;;55.17;38.03;;;13.90;99.90;;;;;;5049628;28;20052;-77
2022/07/07 03:55:04;;;;;;;53.53;39.55;;;13.90;99.90;;;;;;5053537;28;20093;-76
2022/07/07 03:57:31;;;;;;;56.40;39.42;;;13.90;99.90;;;;;;5052209;28;20044;-76
2022/07/07 03:59:57;;;;;;;46.08;35.20;;;13.90;99.90;;;;;;5046080;28;20481;-76
2022/07/07 04:02:24;;;;;;;46.05;36.05;;;13.80;99.90;;;;;;5034491;28;20064;-76
2022/07/07 04:04:51;;;;;;;45.72;36.45;;;13.80;99.90;;;;;;5030334;28;20056;-76
2022/07/07 04:07:18;;;;;;;42.78;32.83;;;13.80;99.90;;;;;;5050945;28;20048;-76
2022/07/07 04:09:45;;;;;;;41.97;31.30;;;13.90;99.90;;;;;;5053361;28;20044;-78
2022/07/07 04:12:12;;;;;;;43.17;33.30;;;13.90;99.90;;;;;;5041151;28;20470;-79
2022/07/07 04:14:39;;;;;;;42.63;32.60;;;13.90;99.90;;;;;;5033264;28;20055;-78
2022/07/07 04:17:05;;;;;;;46.80;33.38;;;13.90;99.90;;;;;;5051165;28;20120;-79
2022/07/07 04:19:32;;;;;;;40.10;31.30;;;13.90;99.90;;;;;;5051412;28;20056;-79
2022/07/07 04:21:59;;;;;;;45.53;32.72;;;13.90;99.90;;;;;;5047528;28;20036;-78
2022/07/07 04:24:26;;;;;;;48.63;32.42;;;13.90;99.90;;;;;;5069956;28;20056;-75
2022/07/07 04:26:53;;;;;;;43.13;30.50;;;13.90;99.90;;;;;;5050299;28;20036;-76
2022/07/07 04:29:20;;;;;;;44.00;32.45;;;13.90;99.90;;;;;;5050331;28;20051;-76
2022/07/07 04:31:53;;;;;;;42.83;32.72;;;13.90;99.90;;;;;;5030577;28;20100;-77
2022/07/07 04:34:22;;;;;;;43.83;32.65;;;13.90;99.90;;;;;;5041099;28;20045;-78
2022/07/07 04:36:48;;;;;;;43.55;33.03;;;14.00;99.90;;;;;;5050644;28;20036;-77
2022/07/07 04:39:15;;;;;;;51.28;31.77;;;14.00;99.90;;;;;;5054059;28;20633;-77
2022/07/07 04:41:42;;;;;;;47.28;35.40;;;14.00;99.90;;;;;;5038350;28;20120;-76
2022/07/07 04:44:09;;;;;;;56.60;38.80;;;14.00;99.90;;;;;;5072066;28;20546;-76
2022/07/07 04:46:36;;;;;;;55.78;37.88;;;14.00;99.90;;;;;;5039714;28;20117;-76
2022/07/07 04:49:03;;;;;;;65.10;39.70;;;14.00;99.90;;;;;;5052316;28;20068;-75
2022/07/07 04:51:30;;;;;;;62.17;40.95;;;14.00;99.90;;;;;;5047869;28;20072;-75
2022/07/07 04:53:57;;;;;;;70.78;44.42;;;14.00;99.90;;;;;;5052278;28;20086;-76
2022/07/07 04:56:24;;;;;;;73.07;44.70;;;14.00;99.90;;;;;;5053083;28;20168;-76
2022/07/07 04:58:50;;;;;;;72.50;46.97;;;14.10;99.90;;;;;;5056038;28;20087;-75
2022/07/07 05:01:17;;;;;;;80.60;47.35;;;14.10;99.90;;;;;;5053409;28;20043;-75
2022/07/07 05:03:44;;;;;;;82.43;48.83;;;14.10;99.90;;;;;;5050751;28;20051;-75
2022/07/07 05:06:11;;;;;;;84.43;49.72;;;14.00;99.90;;;;;;5040910;28;20064;-76
2022/07/07 05:08:39;;;;;;;92.30;53.03;;;14.10;99.90;;;;;;5040326;28;20062;-76
2022/07/07 05:11:06;;;;;;;78.50;50.05;;;14.10;99.90;;;;;;5067252;28;20068;-74
2022/07/07 05:13:32;;;;;;;85.63;50.20;;;14.10;99.90;;;;;;5065195;28;20471;-74
2022/07/07 05:15:59;;;;;;;88.93;53.63;;;14.10;99.90;;;;;;5048096;28;20048;-76
2022/07/07 05:18:26;;;;;;;84.45;52.83;;;14.00;99.90;;;;;;5050528;28;20452;-76
2022/07/07 05:20:53;;;;;;;82.97;51.63;;;14.00;99.90;;;;;;5051037;28;20040;-76
2022/07/07 05:23:20;;;;;;;87.25;53.92;;;14.10;99.90;;;;;;5043973;28;20049;-76
2022/07/07 05:25:47;;;;;;;85.80;53.10;;;14.20;99.90;;;;;;5042750;28;20129;-75
2022/07/07 05:28:13;;;;;;;91.47;55.78;;;14.20;99.90;;;;;;5066277;28;20168;-75
2022/07/07 05:30:40;;;;;;;87.57;53.58;;;14.20;99.90;;;;;;5045721;28;20052;-76
2022/07/07 05:33:07;;;;;;;86.88;53.78;;;14.20;99.90;;;;;;5038010;28;20059;-77
2022/07/07 05:35:35;;;;;;;79.43;53.00;;;14.20;99.90;;;;;;5051456;28;20040;-75
2022/07/07 05:38:03;;;;;;;86.75;54.38;;;14.20;99.90;;;;;;5037337;28;20117;-75
2022/07/07 05:40:30;;;;;;;91.18;57.53;;;14.20;99.90;;;;;;5069764;28;20105;-75
2022/07/07 05:42:57;;;;;;;85.38;55.35;;;14.30;99.90;;;;;;5050979;28;20102;-76
2022/07/07 05:45:24;;;;;;;80.40;53.22;;;14.20;99.90;;;;;;5051506;28;20117;-76
2022/07/07 05:47:51;;;;;;;79.38;50.10;;;14.20;99.90;;;;;;5051279;28;20048;-75
2022/07/07 05:50:18;;;;;;;77.57;50.58;;;14.30;99.90;;;;;;5050612;28;20109;-76
2022/07/07 05:52:45;;;;;;;67.63;46.78;;;14.30;99.90;;;;;;5052652;28;20052;-75
2022/07/07 05:55:12;;;;;;;76.88;48.70;;;14.30;99.90;;;;;;5051179;28;20047;-76
2022/07/07 05:57:39;;;;;;;69.45;47.83;;;14.40;99.90;;;;;;5067342;28;20298;-76
2022/07/07 06:00:06;;;;;;;74.38;49.63;;;14.40;99.90;;;;;;5048373;28;20087;-75
2022/07/07 06:02:41;;;;;;;70.90;48.60;;;14.40;99.90;;;;;;5071566;28;20051;-76
2022/07/07 06:05:09;;;;;;;85.47;53.63;;;14.50;99.90;;;;;;5066023;28;20057;-75
2022/07/07 06:07:35;;;;;;;82.07;51.97;;;14.50;99.90;;;;;;5040306;28;20097;-74
2022/07/07 06:10:03;;;;;;;86.85;55.35;;;14.50;99.90;;;;;;5038232;28;20097;-76
2022/07/07 06:12:30;;;;;;;87.93;55.58;;;14.60;99.90;;;;;;5040317;28;20450;-75
2022/07/07 06:14:57;;;;;;;97.03;60.08;;;14.50;99.90;;;;;;5050167;28;20483;-76
2022/07/07 06:17:25;;;;;;;97.60;56.70;;;14.60;99.90;;;;;;5038662;28;20072;-76
2022/07/07 06:20:12;;;;;;;91.85;58.10;;;14.60;99.90;;;;;;5043938;28;20099;-76
2022/07/07 06:22:39;;;;;;;99.88;58.22;;;14.60;99.90;;;;;;5048457;28;20121;-76
2022/07/07 06:25:11;;;;;;;108.68;59.75;;;14.70;99.90;;;;;;5051227;28;20495;-76
2022/07/07 06:27:38;;;;;;;94.60;55.90;;;14.70;99.90;;;;;;5053524;28;20082;-76
2022/07/07 06:30:06;;;;;;;96.10;57.17;;;14.70;99.90;;;;;;5049308;28;20102;-75
2022/07/07 06:32:32;;;;;;;90.00;54.33;;;14.70;99.90;;;;;;5052946;28;20203;-76
2022/07/07 06:34:59;;;;;;;87.68;52.63;;;14.70;99.90;;;;;;5066630;28;20269;-76
2022/07/07 06:37:26;;;;;;;61.03;39.58;;;14.80;99.90;;;;;;5041172;28;20098;-76
2022/07/07 06:39:53;;;;;;;47.60;33.20;;;14.70;99.90;;;;;;5046938;28;20056;-76
2022/07/07 06:42:20;;;;;;;41.65;29.95;;;14.70;99.90;;;;;;5049535;28;20048;-72
2022/07/07 06:44:49;;;;;;;24.73;20.10;;;14.70;99.90;;;;;;5032237;28;20052;-73
2022/07/07 06:47:16;;;;;;;30.17;24.27;;;14.70;99.90;;;;;;5039460;28;20098;-74
2022/07/07 06:49:43;;;;;;;19.73;12.98;;;14.80;99.90;;;;;;5037112;28;20132;-76
2022/07/07 06:52:10;;;;;;;14.52;12.43;;;14.70;99.90;;;;;;5072279;28;20036;-75
2022/07/07 06:54:38;;;;;;;17.35;14.13;;;14.60;99.90;;;;;;5041294;28;20560;-76
2022/07/07 06:57:06;;;;;;;17.23;13.02;;;14.70;99.90;;;;;;5052275;28;20510;-75
2022/07/07 06:59:34;;;;;;;11.45;9.63;;;14.70;99.90;;;;;;5036334;28;20502;-74
2022/07/07 07:02:01;;;;;;;15.15;8.85;;;14.70;99.90;;;;;;5072216;28;20043;-75
2022/07/07 07:04:27;;;;;;;10.32;8.85;;;14.80;99.90;;;;;;5071853;28;20140;-74
2022/07/07 07:06:54;;;;;;;12.60;10.20;;;14.80;99.90;;;;;;5033295;28;20044;-75
2022/07/07 07:09:21;;;;;;;11.10;9.43;;;14.90;99.90;;;;;;5068477;28;20056;-77
2022/07/07 07:11:50;;;;;;;13.05;10.77;;;14.80;99.90;;;;;;5035518;28;20037;-75
2022/07/07 07:14:24;;;;;;;20.08;13.90;;;14.90;99.90;;;;;;5036883;28;20114;-76
2022/07/07 07:16:51;;;;;;;25.27;16.92;;;15.00;99.90;;;;;;5050383;28;20094;-75
2022/07/07 07:19:18;;;;;;;20.63;16.55;;;15.00;99.90;;;;;;5046481;28;20048;-74
2022/07/07 07:21:45;;;;;;;22.35;18.08;;;15.00;99.90;;;;;;5045390;28;20038;-75
2022/07/07 07:24:12;;;;;;;24.58;18.58;;;14.90;99.90;;;;;;5048178;28;20513;-77
2022/07/07 07:26:39;;;;;;;22.33;18.33;;;14.90;99.90;;;;;;5049822;28;20036;-75
2022/07/07 07:29:13;;;;;;;21.10;18.02;;;14.90;99.90;;;;;;5034779;28;20066;-76
2022/07/07 07:31:40;;;;;;;23.10;18.08;;;14.90;99.90;;;;;;5049741;28;20487;-76
2022/07/07 07:34:08;;;;;;;19.27;16.33;;;14.90;99.90;;;;;;5049051;28;20048;-76
2022/07/07 07:36:34;;;;;;;21.55;16.23;;;14.90;99.90;;;;;;5070235;28;20037;-75
2022/07/07 07:39:02;;;;;;;17.20;13.25;;;15.00;99.90;;;;;;5052092;28;20059;-76
2022/07/07 07:41:28;;;;;;;14.55;12.95;;;15.00;99.90;;;;;;5050629;28;20048;-76
2022/07/07 07:43:55;;;;;;;12.80;11.60;;;15.10;99.90;;;;;;5052463;28;20075;-76
2022/07/07 07:46:22;;;;;;;17.27;12.18;;;15.10;99.90;;;;;;5035084;28;20048;-75
2022/07/07 07:48:49;;;;;;;15.05;11.95;;;15.20;99.90;;;;;;5052410;28;20151;-76
2022/07/07 07:51:16;;;;;;;17.23;13.13;;;15.20;99.90;;;;;;5072113;28;20072;-76
2022/07/07 07:53:43;;;;;;;15.82;13.13;;;15.10;99.90;;;;;;5050831;28;20142;-76
2022/07/07 07:56:10;;;;;;;15.07;13.55;;;15.10;99.90;;;;;;5043429;28;20040;-76
2022/07/07 07:58:36;;;;;;;17.20;14.88;;;15.10;99.90;;;;;;5053957;28;20137;-76
2022/07/07 08:01:04;;;;;;;15.57;12.85;;;15.20;99.90;;;;;;5073751;28;20048;-76
2022/07/07 08:03:31;;;;;;;11.77;10.23;;;15.20;99.90;;;;;;5052432;28;20056;-77
2022/07/07 08:05:59;;;;;;;11.50;10.38;;;15.10;99.90;;;;;;5054328;28;20056;-76
2022/07/07 08:08:26;;;;;;;13.25;11.85;;;15.10;99.90;;;;;;5040967;28;20402;-76
2022/07/07 08:10:52;;;;;;;15.82;14.20;;;15.10;99.90;;;;;;5051809;28;20223;-77
2022/07/07 08:13:19;;;;;;;8.80;7.90;;;15.10;99.90;;;;;;5036075;28;20060;-76
2022/07/07 08:15:46;;;;;;;10.10;8.75;;;15.10;99.90;;;;;;5051228;28;20079;-75
2022/07/07 08:18:13;;;;;;;7.45;6.75;;;15.00;99.90;;;;;;5054029;28;20101;-75
2022/07/07 08:20:40;;;;;;;7.10;6.43;;;15.10;99.90;;;;;;5064690;28;20101;-76
2022/07/07 08:23:07;;;;;;;7.95;6.53;;;15.20;99.90;;;;;;5052408;28;20399;-75
2022/07/07 08:25:34;;;;;;;5.57;5.03;;;15.30;99.90;;;;;;5049466;28;20032;-75
2022/07/07 08:28:01;;;;;;;6.53;5.18;;;15.40;99.90;;;;;;5061449;28;20049;-75
2022/07/07 08:30:27;;;;;;;7.70;6.50;;;15.40;99.90;;;;;;5056097;28;20052;-77
2022/07/07 08:32:54;;;;;;;6.00;5.10;;;15.50;99.90;;;;;;5052963;28;20829;-76
2022/07/07 08:35:21;;;;;;;7.65;5.88;;;15.50;99.90;;;;;;5054419;28;20108;-75
2022/07/07 08:37:48;;;;;;;9.40;5.90;;;15.50;99.90;;;;;;5049867;28;20071;-76
2022/07/07 08:40:15;;;;;;;5.50;4.95;;;15.50;99.90;;;;;;5073821;28;20135;-75
2022/07/07 08:42:41;;;;;;;6.65;4.85;;;15.40;99.90;;;;;;5037665;28;20408;-76
2022/07/07 08:45:09;;;;;;;5.93;5.43;;;15.30;99.90;;;;;;5039540;28;20051;-75
2022/07/07 08:47:35;;;;;;;5.80;5.25;;;15.40;99.90;;;;;;5075679;28;20048;-77
2022/07/07 08:50:03;;;;;;;7.78;6.43;;;15.40;99.90;;;;;;5074015;28;20131;-77
2022/07/07 08:52:30;;;;;;;6.85;5.90;;;15.60;99.90;;;;;;5037856;28;20115;-75
2022/07/07 08:54:57;;;;;;;6.38;5.88;;;15.60;99.90;;;;;;5049079;28;20510;-76
2022/07/07 08:57:25;;;;;;;7.40;4.60;;;15.80;99.90;;;;;;5039186;28;20048;-76
2022/07/07 08:59:56;;;;;;;5.57;5.00;;;15.90;99.90;;;;;;5056005;28;20102;-75
2022/07/07 09:02:24;;;;;;;5.15;4.65;;;16.10;99.90;;;;;;5068956;28;20052;-76
2022/07/07 09:04:52;;;;;;;6.15;5.65;;;15.90;99.90;;;;;;5041619;28;20040;-75
2022/07/07 09:07:19;;;;;;;6.90;6.30;;;16.00;99.90;;;;;;5069365;28;20249;-75
2022/07/07 09:09:52;;;;;;;6.95;6.35;;;16.10;99.90;;;;;;5031652;28;20105;-75
2022/07/07 09:12:20;;;;;;;8.80;7.25;;;16.00;99.90;;;;;;5045120;28;20070;-75
2022/07/07 09:14:50;;;;;;;8.63;7.78;;;16.10;99.90;;;;;;5060859;28;20051;-74
2022/07/07 09:17:26;;;;;;;12.20;7.65;;;16.00;99.90;;;;;;5067688;28;20044;-75
2022/07/07 09:20:03;;;;;;;7.15;6.55;;;15.90;99.90;;;;;;5058627;28;20138;-75
2022/07/07 09:22:53;;;;;;;7.78;6.97;;;15.70;99.90;;;;;;5047687;28;20457;-75
2022/07/07 09:25:29;;;;;;;9.98;6.93;;;15.60;99.90;;;;;;5042828;28;20051;-75
2022/07/07 09:27:59;;;;;;;7.75;7.05;;;15.80;99.90;;;;;;5049658;28;20838;-74
2022/07/07 09:30:28;;;;;;;9.00;8.18;;;15.90;99.90;;;;;;5051283;28;20508;-74
2022/07/07 09:32:55;;;;;;;8.82;7.95;;;16.00;99.90;;;;;;5062361;23;20076;-71
2022/07/07 09:38:13;;;;;;;10.65;9.82;;;16.10;99.90;;;;;;5055617;28;20076;-71
2022/07/07 09:41:04;;;;;;;9.40;8.80;;;16.20;99.90;;;;;;5056526;28;20128;-73
2022/07/07 09:43:36;;;;;;;11.80;10.80;;;16.30;99.90;;;;;;5034988;28;20048;-73
2022/07/07 09:46:14;;;;;;;12.40;11.50;;;16.30;99.90;;;;;;5035264;28;20068;-73
2022/07/07 09:48:43;;;;;;;13.50;12.07;;;16.40;99.90;;;;;;5039357;28;20170;-73
2022/07/07 09:51:24;;;;;;;13.27;11.95;;;16.30;99.90;;;;;;5041803;28;20067;-72
2022/07/07 09:53:53;;;;;;;12.73;11.65;;;16.10;99.90;;;;;;5033951;28;20077;-72
2022/07/07 09:56:27;;;;;;;12.25;11.32;;;16.20;99.90;;;;;;5034165;28;20048;-72
2022/07/07 09:58:54;;;;;;;13.18;10.38;;;16.10;99.90;;;;;;5057475;28;20075;-72
2022/07/07 10:01:25;;;;;;;10.95;10.05;;;16.00;99.90;;;;;;5059818;28;20585;-72
2022/07/07 10:04:04;;;;;;;11.38;10.57;;;15.80;99.90;;;;;;5058582;28;20051;-72
2022/07/07 10:06:34;;;;;;;11.93;10.77;;;15.60;99.90;;;;;;5059061;28;20041;-71
2022/07/07 10:09:15;;;;;;;10.52;9.55;;;15.50;99.90;;;;;;5058701;28;20056;-74
2022/07/07 10:12:03;;;;;;;12.07;9.93;;;15.40;99.90;;;;;;5045240;28;20098;-74
2022/07/07 10:14:42;;;;;;;14.55;9.52;;;15.30;99.90;;;;;;5053006;28;20044;-74
2022/07/07 10:17:11;;;;;;;8.13;7.43;;;15.40;99.90;;;;;;5056047;28;20044;-74
2022/07/07 10:19:38;;;;;;;9.80;7.85;;;15.40;99.90;;;;;;5058393;28;20044;-73
2022/07/07 10:22:07;;;;;;;9.15;8.25;;;15.20;99.90;;;;;;5055180;28;20090;-73
2022/07/07 10:24:35;;;;;;;9.73;8.73;;;15.30;99.90;;;;;;5037192;28;20272;-74
2022/07/07 10:27:03;;;;;;;10.57;8.65;;;15.50;99.90;;;;;;5044359;28;20049;-74
2022/07/07 10:29:43;;;;;;;11.05;9.65;;;15.80;99.90;;;;;;5061423;28;20055;-75
2022/07/07 10:32:15;;;;;;;11.45;10.55;;;16.30;99.90;;;;;;5044214;28;20048;-73
2022/07/07 10:34:53;;;;;;;13.23;12.35;;;16.80;99.90;;;;;;5033644;28;20041;-74
2022/07/07 10:37:21;;;;;;;16.25;14.77;;;17.20;99.90;;;;;;5038652;28;20036;-73
2022/07/07 10:39:50;;;;;;;15.23;13.85;;;17.30;99.90;;;;;;5057627;28;20074;-74
2022/07/07 10:42:17;;;;;;;15.98;14.98;;;17.40;99.90;;;;;;5054571;28;20040;-73
2022/07/07 10:44:46;;;;;;;16.02;14.93;;;17.20;99.90;;;;;;5059594;28;20056;-73
2022/07/07 10:47:13;;;;;;;15.10;13.95;;;17.00;99.90;;;;;;5041953;28;20767;-73
2022/07/07 10:49:42;;;;;;;14.63;13.80;;;16.80;99.90;;;;;;5039372;28;20048;-73
2022/07/07 10:52:24;;;;;;;15.20;14.10;;;16.60;99.90;;;;;;5051882;28;20049;-74
2022/07/07 10:54:52;;;;;;;;;;;16.70;99.90;;;;;;5037859;28;20279;-74
2022/07/07 10:57:21;;;;;;;14.82;13.70;;;16.60;99.90;;;;;;5058973;28;19948;-73
2022/07/07 10:59:59;;;;;;;14.82;13.63;;;16.30;99.90;;;;;;5034755;28;20060;-74
2022/07/07 11:02:29;;;;;;;15.27;13.77;;;16.20;99.90;;;;;;5058213;28;20509;-75
2022/07/07 11:04:57;;;;;;;14.60;13.32;;;15.90;99.90;;;;;;5038803;28;20044;-74
2022/07/07 11:07:25;;;;;;;13.15;12.10;;;15.90;99.90;;;;;;5054992;28;20079;-74
2022/07/07 11:10:03;;;;;;;14.88;13.65;;;16.50;99.90;;;;;;5051229;28;20048;-75
2022/07/07 11:12:53;;;;;;;17.00;15.68;;;16.90;99.90;;;;;;5037118;28;20048;-74
2022/07/07 11:15:30;;;;;;;17.52;16.48;;;17.10;99.90;;;;;;5053472;28;20043;-74
2022/07/07 11:17:57;;;;;;;17.73;16.40;;;17.50;99.90;;;;;;5056389;28;20065;-74
2022/07/07 11:20:29;;;;;;;19.65;18.17;;;18.30;99.90;;;;;;5039007;28;20064;-73
2022/07/07 11:23:11;;;;;;;19.65;18.27;;;18.60;99.90;;;;;;5056320;28;20056;-73
2022/07/07 11:25:41;;;;;;;21.02;19.48;;;18.80;99.90;;;;;;5050890;28;20697;-73
2022/07/07 11:28:09;;;;;;;19.17;17.77;;;18.40;99.90;;;;;;5057299;28;20045;-73
2022/07/07 11:30:42;;;;;;;19.85;18.02;;;17.90;99.90;;;;;;5057415;28;20079;-74
2022/07/07 11:33:09;;;;;;;22.00;20.38;;;17.50;99.90;;;;;;5056288;28;20535;-74
2022/07/07 11:35:40;;;;;;;19.25;18.08;;;17.60;99.90;;;;;;5038754;28;20052;-73
2022/07/07 11:38:11;;;;;;;20.25;18.95;;;17.90;99.90;;;;;;5035642;28;20063;-74
2022/07/07 11:40:39;;;;;;;20.73;19.52;;;18.40;99.90;;;;;;5054320;28;20041;-75
2022/07/07 11:43:06;;;;;;;21.25;19.85;;;18.70;99.90;;;;;;5054463;28;21071;-74
2022/07/07 11:45:38;;;;;;;22.85;21.30;;;18.70;99.90;;;;;;5057127;28;20139;-73
2022/07/07 11:48:07;;;;;;;22.17;20.77;;;19.10;99.90;;;;;;5052786;28;20071;-74
2022/07/07 11:50:35;;;;;;;22.35;20.90;;;19.40;99.90;;;;;;5033189;28;20099;-74
2022/07/07 11:53:07;;;;;;;23.13;21.33;;;19.50;99.90;;;;;;5054940;28;20535;-74
2022/07/07 11:55:33;;;;;;;22.10;20.65;;;19.00;99.90;;;;;;5035763;28;20093;-73
2022/07/07 11:58:03;;;;;;;22.15;20.63;;;18.60;99.90;;;;;;5054831;28;20098;-74
2022/07/07 12:00:32;;;;;;;21.60;20.00;;;18.30;99.90;;;;;;5049750;28;20136;-74
2022/07/07 12:03:02;;;;;;;21.75;20.33;;;18.10;99.90;;;;;;5047831;28;20048;-74
2022/07/07 12:05:43;;;;;;;22.40;20.80;;;18.00;99.90;;;;;;5037529;28;20041;-74
2022/07/07 12:08:12;;;;;;;23.13;20.80;;;17.80;99.90;;;;;;5057733;28;20076;-75
2022/07/07 12:10:50;;;;;;;22.80;20.80;;;18.00;99.90;;;;;;5036395;28;20090;-75
2022/07/07 12:13:17;;;;;;;22.90;21.50;;;18.00;99.90;;;;;;5051919;28;20327;-72
2022/07/07 12:15:49;;;;;;;23.08;21.15;;;18.20;99.90;;;;;;5053817;28;20681;-74
2022/07/07 12:18:22;;;;;;;22.10;20.80;;;18.50;99.90;;;;;;5059706;28;20051;-74
2022/07/07 12:21:25;;;;;;;23.27;21.40;;;18.60;99.90;;;;;;5032549;28;20052;-74
2022/07/07 12:23:53;;;;;;;22.67;21.27;;;18.60;99.90;;;;;;5039680;28;20040;-73
2022/07/07 12:26:20;;;;;;;23.52;21.45;;;18.50;99.90;;;;;;5037068;28;20045;-73
2022/07/07 12:28:48;;;;;;;22.15;20.55;;;18.40;99.90;;;;;;5052844;28;20052;-73
2022/07/07 12:31:20;;;;;;;21.23;19.83;;;18.30;99.90;;;;;;5037118;28;20532;-72
2022/07/07 12:33:48;;;;;;;21.48;19.88;;;18.30;99.90;;;;;;5017550;28;20160;-72
2022/07/07 12:36:23;;;;;;;21.30;19.75;;;18.20;99.90;;;;;;5052893;28;20098;-71
2022/07/07 12:38:58;;;;;;;21.52;20.00;;;17.90;99.90;;;;;;5035592;28;20064;-71
2022/07/07 12:41:32;;;;;;;20.23;18.95;;;17.70;99.90;;;;;;5038304;28;20106;-70